createdAt,value
2023-03-01T00:00:23.197Z,0.00
2023-03-01T00:01:23.208Z,0.00
2023-03-01T00:02:23.321Z,0.00
2023-03-01T00:03:23.221Z,0.00
2023-03-01T00:04:23.162Z,0.00
2023-03-01T00:05:23.131Z,0.00
2023-03-01T00:06:23.136Z,0.00
2023-03-01T00:07:23.133Z,0.00
2023-03-01T00:08:23.111Z,0.00
2023-03-01T00:09:23.098Z,0.00
2023-03-01T00:10:23.085Z,0.00
2023-03-01T00:11:23.148Z,0.00
2023-03-01T00:12:23.090Z,0.00
2023-03-01T00:13:23.050Z,0.00
2023-03-01T00:14:23.080Z,0.00
2023-03-01T00:15:23.030Z,0.00
2023-03-01T00:16:23.112Z,0.00
2023-03-01T00:17:23.007Z,0.00
2023-03-01T00:18:23.001Z,0.00
2023-03-01T00:19:23.053Z,0.00
2023-03-01T00:20:22.982Z,0.00
2023-03-01T00:21:22.959Z,0.00
2023-03-01T00:22:22.979Z,0.00
2023-03-01T00:23:22.961Z,0.00
2023-03-01T00:24:23.982Z,0.00
2023-03-01T00:25:22.929Z,0.00
2023-03-01T00:26:22.947Z,0.00
2023-03-01T00:27:22.903Z,0.00
2023-03-01T00:28:22.904Z,0.00
2023-03-01T00:29:22.885Z,0.00
2023-03-01T00:30:24.967Z,0.00
2023-03-01T00:31:22.886Z,0.00
2023-03-01T00:32:22.899Z,0.00
2023-03-01T00:33:22.833Z,0.00
2023-03-01T00:34:22.853Z,0.00
2023-03-01T00:35:22.830Z,0.00
2023-03-01T00:36:22.812Z,0.00
2023-03-01T00:37:22.817Z,0.00
2023-03-01T00:38:22.790Z,0.00
2023-03-01T00:39:22.778Z,0.00
2023-03-01T00:40:22.778Z,0.00
2023-03-01T00:41:23.770Z,0.00
2023-03-01T00:42:22.770Z,0.00
2023-03-01T00:43:23.809Z,0.00
2023-03-01T00:44:22.722Z,0.00
2023-03-01T00:45:22.718Z,0.00
2023-03-01T00:46:22.774Z,0.00
2023-03-01T00:47:22.699Z,0.00
2023-03-01T00:48:22.686Z,0.00
2023-03-01T00:49:22.704Z,0.00
2023-03-01T00:50:22.665Z,0.00
2023-03-01T00:51:22.650Z,0.00
2023-03-01T00:52:22.638Z,0.00
2023-03-01T00:53:22.624Z,0.00
2023-03-01T00:54:22.641Z,0.00
2023-03-01T00:55:23.266Z,0.00
2023-03-01T00:56:22.599Z,0.00
2023-03-01T00:57:22.599Z,0.00
2023-03-01T00:58:22.573Z,0.00
2023-03-01T00:59:22.581Z,0.00
2023-03-01T01:00:22.548Z,0.00
2023-03-01T01:01:22.635Z,0.00
2023-03-01T01:02:22.607Z,0.00
2023-03-01T01:03:22.524Z,0.00
2023-03-01T01:04:22.528Z,0.00
2023-03-01T01:05:22.502Z,0.00
2023-03-01T01:06:22.493Z,0.00
2023-03-01T01:07:22.503Z,0.00
2023-03-01T01:08:22.466Z,0.00
2023-03-01T01:09:23.499Z,0.00
2023-03-01T01:10:22.471Z,0.00
2023-03-01T01:11:23.457Z,0.00
2023-03-01T01:12:22.439Z,0.00
2023-03-01T01:13:22.418Z,0.00
2023-03-01T01:14:22.411Z,0.00
2023-03-01T01:15:22.393Z,0.00
2023-03-01T01:16:22.497Z,0.00
2023-03-01T01:17:22.379Z,0.00
2023-03-01T01:18:22.383Z,0.00
2023-03-01T01:19:22.351Z,0.00
2023-03-01T01:20:22.339Z,0.00
2023-03-01T01:21:22.325Z,0.00
2023-03-01T01:22:22.340Z,0.00
2023-03-01T01:23:22.308Z,0.00
2023-03-01T01:24:22.300Z,0.00
2023-03-01T01:25:22.280Z,0.00
2023-03-01T01:26:23.343Z,0.00
2023-03-01T01:27:22.266Z,0.00
2023-03-01T01:28:22.263Z,0.00
2023-03-01T01:29:22.235Z,0.00
2023-03-01T01:30:22.240Z,0.00
2023-03-01T01:31:22.256Z,0.00
2023-03-01T01:32:22.300Z,0.00
2023-03-01T01:33:22.197Z,0.00
2023-03-01T01:34:22.218Z,0.00
2023-03-01T01:35:22.221Z,0.00
2023-03-01T01:36:22.180Z,0.00
2023-03-01T01:37:22.166Z,0.00
2023-03-01T01:38:22.149Z,0.00
2023-03-01T01:39:22.137Z,0.00
2023-03-01T01:40:22.135Z,0.00
2023-03-01T01:41:22.116Z,0.00
2023-03-01T01:42:22.101Z,0.00
2023-03-01T01:43:22.129Z,0.00
2023-03-01T01:44:22.083Z,0.00
2023-03-01T01:45:22.061Z,0.00
2023-03-01T01:46:22.107Z,0.00
2023-03-01T01:47:22.047Z,0.00
2023-03-01T01:48:22.045Z,0.00
2023-03-01T01:49:22.056Z,0.00
2023-03-01T01:50:22.042Z,0.00
2023-03-01T01:51:22.002Z,0.00
2023-03-01T01:52:22.007Z,0.00
2023-03-01T01:53:22.003Z,0.00
2023-03-01T01:54:21.999Z,0.00
2023-03-01T01:55:21.969Z,0.00
2023-03-01T01:56:21.950Z,0.00
2023-03-01T01:57:21.984Z,0.00
2023-03-01T01:58:21.916Z,0.00
2023-03-01T01:59:21.922Z,0.00
2023-03-01T02:00:21.926Z,0.00
2023-03-01T02:01:42.891Z,0.00
2023-03-01T02:02:21.995Z,0.00
2023-03-01T02:03:22.065Z,0.00
2023-03-01T02:04:21.867Z,0.00
2023-03-01T02:05:21.859Z,0.00
2023-03-01T02:06:21.869Z,0.00
2023-03-01T02:07:21.841Z,0.00
2023-03-01T02:08:21.818Z,0.00
2023-03-01T02:09:21.820Z,0.00
2023-03-01T02:10:21.825Z,0.00
2023-03-01T02:11:21.820Z,0.00
2023-03-01T02:12:21.769Z,0.00
2023-03-01T02:13:21.771Z,0.00
2023-03-01T02:14:21.767Z,0.00
2023-03-01T02:15:21.762Z,0.00
2023-03-01T02:16:21.851Z,0.00
2023-03-01T02:17:21.721Z,0.00
2023-03-01T02:18:21.720Z,0.00
2023-03-01T02:19:21.701Z,0.00
2023-03-01T02:20:22.697Z,0.00
2023-03-01T02:21:21.701Z,0.00
2023-03-01T02:22:21.760Z,0.00
2023-03-01T02:23:21.658Z,0.00
2023-03-01T02:24:21.679Z,0.00
2023-03-01T02:25:21.650Z,0.00
2023-03-01T02:26:21.647Z,0.00
2023-03-01T02:27:21.655Z,0.00
2023-03-01T02:28:21.611Z,0.00
2023-03-01T02:29:21.605Z,0.00
2023-03-01T02:30:21.592Z,0.00
2023-03-01T02:31:21.604Z,0.00
2023-03-01T02:32:21.605Z,0.00
2023-03-01T02:33:21.571Z,0.00
2023-03-01T02:34:21.537Z,0.00
2023-03-01T02:35:21.602Z,0.00
2023-03-01T02:36:21.512Z,0.00
2023-03-01T02:37:21.534Z,0.00
2023-03-01T02:38:21.511Z,0.00
2023-03-01T02:39:22.533Z,0.00
2023-03-01T02:40:21.470Z,0.00
2023-03-01T02:41:21.473Z,0.00
2023-03-01T02:42:21.450Z,0.00
2023-03-01T02:43:22.524Z,0.00
2023-03-01T02:44:21.464Z,0.00
2023-03-01T02:45:21.434Z,0.00
2023-03-01T02:46:21.487Z,0.00
2023-03-01T02:47:22.447Z,0.00
2023-03-01T02:48:21.408Z,0.00
2023-03-01T02:49:22.418Z,0.00
2023-03-01T02:50:21.378Z,0.00
2023-03-01T02:51:21.369Z,0.00
2023-03-01T02:52:21.342Z,0.00
2023-03-01T02:53:21.392Z,0.00
2023-03-01T02:54:21.333Z,0.00
2023-03-01T02:55:21.325Z,0.00
2023-03-01T02:56:21.320Z,0.00
2023-03-01T02:57:21.312Z,0.00
2023-03-01T02:58:21.301Z,0.00
2023-03-01T02:59:21.285Z,0.00
2023-03-01T03:00:21.288Z,0.00
2023-03-01T03:01:21.260Z,0.00
2023-03-01T03:02:21.260Z,0.00
2023-03-01T03:03:21.327Z,0.00
2023-03-01T03:04:21.209Z,0.00
2023-03-01T03:05:21.270Z,0.00
2023-03-01T03:06:21.201Z,0.00
2023-03-01T03:07:21.185Z,0.00
2023-03-01T03:08:21.273Z,0.00
2023-03-01T03:09:21.165Z,0.00
2023-03-01T03:10:21.160Z,0.00
2023-03-01T03:11:21.156Z,0.00
2023-03-01T03:12:21.155Z,0.00
2023-03-01T03:13:21.122Z,0.00
2023-03-01T03:14:21.123Z,0.00
2023-03-01T03:15:21.114Z,0.00
2023-03-01T03:16:21.187Z,0.00
2023-03-01T03:17:21.086Z,0.00
2023-03-01T03:18:21.073Z,0.00
2023-03-01T03:19:21.059Z,0.00
2023-03-01T03:20:21.061Z,0.00
2023-03-01T03:21:21.039Z,0.00
2023-03-01T03:22:21.009Z,0.00
2023-03-01T03:23:21.092Z,0.00
2023-03-01T03:24:20.992Z,0.00
2023-03-01T03:25:20.989Z,0.00
2023-03-01T03:26:20.981Z,0.00
2023-03-01T03:27:20.968Z,0.00
2023-03-01T03:28:20.951Z,0.00
2023-03-01T03:29:20.962Z,0.00
2023-03-01T03:30:20.912Z,0.00
2023-03-01T03:31:20.953Z,0.00
2023-03-01T03:32:20.966Z,0.00
2023-03-01T03:33:20.922Z,0.00
2023-03-01T03:34:20.876Z,0.00
2023-03-01T03:35:20.872Z,0.00
2023-03-01T03:36:20.871Z,0.00
2023-03-01T03:37:20.866Z,0.00
2023-03-01T03:38:20.855Z,0.00
2023-03-01T03:39:20.831Z,0.00
2023-03-01T03:40:20.814Z,0.00
2023-03-01T03:41:22.859Z,0.00
2023-03-01T03:42:20.817Z,0.00
2023-03-01T03:43:20.810Z,0.00
2023-03-01T03:44:20.785Z,0.00
2023-03-01T03:45:20.759Z,0.00
2023-03-01T03:46:20.753Z,0.00
2023-03-01T03:47:20.740Z,0.00
2023-03-01T03:48:20.727Z,0.00
2023-03-01T03:49:20.736Z,0.00
2023-03-01T03:50:20.713Z,0.00
2023-03-01T03:51:20.734Z,0.00
2023-03-01T03:52:20.695Z,0.00
2023-03-01T03:53:20.677Z,0.00
2023-03-01T03:54:20.665Z,0.00
2023-03-01T03:55:20.645Z,0.00
2023-03-01T03:56:20.675Z,0.00
2023-03-01T03:57:20.634Z,0.00
2023-03-01T03:58:20.827Z,0.00
2023-03-01T03:59:20.604Z,0.00
2023-03-01T04:00:20.617Z,0.00
2023-03-01T04:01:20.613Z,0.00
2023-03-01T04:02:21.672Z,0.00
2023-03-01T04:03:20.572Z,0.00
2023-03-01T04:04:20.555Z,0.00
2023-03-01T04:05:20.540Z,0.00
2023-03-01T04:06:20.562Z,0.00
2023-03-01T04:07:20.516Z,0.00
2023-03-01T04:08:20.513Z,0.00
2023-03-01T04:09:20.503Z,0.00
2023-03-01T04:10:20.489Z,0.00
2023-03-01T04:11:20.513Z,0.00
2023-03-01T04:12:20.471Z,0.00
2023-03-01T04:13:20.458Z,0.00
2023-03-01T04:14:20.463Z,0.00
2023-03-01T04:15:20.435Z,0.00
2023-03-01T04:16:20.470Z,0.00
2023-03-01T04:17:20.417Z,0.00
2023-03-01T04:18:20.398Z,0.00
2023-03-01T04:19:20.378Z,0.00
2023-03-01T04:20:20.386Z,0.00
2023-03-01T04:21:20.381Z,0.00
2023-03-01T04:22:20.367Z,0.00
2023-03-01T04:23:20.367Z,0.00
2023-03-01T04:24:20.331Z,0.00
2023-03-01T04:25:20.321Z,0.00
2023-03-01T04:26:20.313Z,0.00
2023-03-01T04:27:20.297Z,0.00
2023-03-01T04:28:20.337Z,0.00
2023-03-01T04:29:20.296Z,0.00
2023-03-01T04:30:20.286Z,0.00
2023-03-01T04:31:20.280Z,0.00
2023-03-01T04:32:20.402Z,0.00
2023-03-01T04:33:20.237Z,0.00
2023-03-01T04:34:20.242Z,0.00
2023-03-01T04:35:20.225Z,0.00
2023-03-01T04:36:20.312Z,0.00
2023-03-01T04:37:20.192Z,0.00
2023-03-01T04:38:20.177Z,0.00
2023-03-01T04:39:21.202Z,0.00
2023-03-01T04:40:20.175Z,0.00
2023-03-01T04:41:20.157Z,0.00
2023-03-01T04:42:20.135Z,0.00
2023-03-01T04:43:20.133Z,0.00
2023-03-01T04:44:20.104Z,0.00
2023-03-01T04:45:20.108Z,0.00
2023-03-01T04:46:20.222Z,0.00
2023-03-01T04:47:20.076Z,0.00
2023-03-01T04:48:20.063Z,0.00
2023-03-01T04:49:20.060Z,0.00
2023-03-01T04:50:20.041Z,0.00
2023-03-01T04:51:20.045Z,0.00
2023-03-01T04:52:20.035Z,0.00
2023-03-01T04:53:20.006Z,0.00
2023-03-01T04:54:20.017Z,0.00
2023-03-01T04:55:19.989Z,0.00
2023-03-01T04:56:19.995Z,0.00
2023-03-01T04:57:19.979Z,0.00
2023-03-01T04:58:19.985Z,0.00
2023-03-01T04:59:19.945Z,0.00
2023-03-01T05:00:19.947Z,0.00
2023-03-01T05:01:19.956Z,0.00
2023-03-01T05:02:41.001Z,0.00
2023-03-01T05:03:19.923Z,0.00
2023-03-01T05:04:19.971Z,0.00
2023-03-01T05:05:19.895Z,0.00
2023-03-01T05:06:19.872Z,0.00
2023-03-01T05:07:19.867Z,0.00
2023-03-01T05:08:19.850Z,0.00
2023-03-01T05:09:19.856Z,0.00
2023-03-01T05:10:19.826Z,0.00
2023-03-01T05:11:19.818Z,0.00
2023-03-01T05:12:19.817Z,0.00
2023-03-01T05:13:19.814Z,0.00
2023-03-01T05:14:19.777Z,0.00
2023-03-01T05:15:19.778Z,0.00
2023-03-01T05:16:19.818Z,0.00
2023-03-01T05:17:19.750Z,0.00
2023-03-01T05:18:19.769Z,0.00
2023-03-01T05:19:19.733Z,0.00
2023-03-01T05:20:19.715Z,0.00
2023-03-01T05:21:20.753Z,0.00
2023-03-01T05:22:19.696Z,0.00
2023-03-01T05:23:19.690Z,0.00
2023-03-01T05:24:19.666Z,0.00
2023-03-01T05:25:19.676Z,0.00
2023-03-01T05:26:28.281Z,0.00
2023-03-01T05:27:20.650Z,0.00
2023-03-01T05:28:19.624Z,0.00
2023-03-01T05:29:19.610Z,0.00
2023-03-01T05:30:19.613Z,0.00
2023-03-01T05:31:19.670Z,0.00
2023-03-01T05:32:19.609Z,0.00
2023-03-01T05:33:19.595Z,0.00
2023-03-01T05:34:19.571Z,0.00
2023-03-01T05:35:19.592Z,0.00
2023-03-01T05:36:19.533Z,0.00
2023-03-01T05:37:19.536Z,0.00
2023-03-01T05:38:19.536Z,0.00
2023-03-01T05:39:19.506Z,0.00
2023-03-01T05:40:19.486Z,0.00
2023-03-01T05:41:19.495Z,0.00
2023-03-01T05:42:19.481Z,0.00
2023-03-01T05:43:19.490Z,0.00
2023-03-01T05:44:19.452Z,0.00
2023-03-01T05:45:19.445Z,0.00
2023-03-01T05:46:19.491Z,0.00
2023-03-01T05:47:19.419Z,4.00
2023-03-01T05:48:19.416Z,0.00
2023-03-01T05:49:19.391Z,0.00
2023-03-01T05:50:19.419Z,4.00
2023-03-01T05:51:19.396Z,0.00
2023-03-01T05:52:19.353Z,4.00
2023-03-01T05:53:19.353Z,4.00
2023-03-01T05:54:19.327Z,4.00
2023-03-01T05:55:19.323Z,4.00
2023-03-01T05:56:19.325Z,8.00
2023-03-01T05:57:19.301Z,8.00
2023-03-01T05:58:19.303Z,12.00
2023-03-01T05:59:19.292Z,8.00
2023-03-01T06:00:19.282Z,12.00
2023-03-01T06:01:19.264Z,16.00
2023-03-01T06:02:19.262Z,16.00
2023-03-01T06:03:20.311Z,20.00
2023-03-01T06:04:19.242Z,20.00
2023-03-01T06:05:20.263Z,28.00
2023-03-01T06:06:19.223Z,32.00
2023-03-01T06:07:19.196Z,32.00
2023-03-01T06:08:19.224Z,40.00
2023-03-01T06:09:19.218Z,48.00
2023-03-01T06:10:19.180Z,52.00
2023-03-01T06:11:19.156Z,60.00
2023-03-01T06:12:19.143Z,64.00
2023-03-01T06:13:19.126Z,72.00
2023-03-01T06:14:19.119Z,80.00
2023-03-01T06:15:19.129Z,88.00
2023-03-01T06:16:19.109Z,96.00
2023-03-01T06:17:19.084Z,108.00
2023-03-01T06:18:19.102Z,120.00
2023-03-01T06:19:19.113Z,128.00
2023-03-01T06:20:19.067Z,140.00
2023-03-01T06:21:19.041Z,152.00
2023-03-01T06:22:19.051Z,168.00
2023-03-01T06:23:19.020Z,180.00
2023-03-01T06:24:19.015Z,192.00
2023-03-01T06:25:20.094Z,204.00
2023-03-01T06:26:18.977Z,220.00
2023-03-01T06:27:18.978Z,232.00
2023-03-01T06:28:19.005Z,248.00
2023-03-01T06:29:19.987Z,260.00
2023-03-01T06:30:18.933Z,276.00
2023-03-01T06:31:19.046Z,292.00
2023-03-01T06:32:18.929Z,308.00
2023-03-01T06:33:18.908Z,324.00
2023-03-01T06:34:18.886Z,340.00
2023-03-01T06:35:19.021Z,352.00
2023-03-01T06:36:18.869Z,368.00
2023-03-01T06:37:18.858Z,384.00
2023-03-01T06:38:18.874Z,404.00
2023-03-01T06:39:18.839Z,416.00
2023-03-01T06:40:18.818Z,436.00
2023-03-01T06:41:18.843Z,452.00
2023-03-01T06:42:18.802Z,468.00
2023-03-01T06:43:18.802Z,484.00
2023-03-01T06:44:18.789Z,500.00
2023-03-01T06:45:18.773Z,516.00
2023-03-01T06:46:18.842Z,536.00
2023-03-01T06:47:18.751Z,552.00
2023-03-01T06:48:18.730Z,564.00
2023-03-01T06:49:18.781Z,584.00
2023-03-01T06:50:18.776Z,596.00
2023-03-01T06:51:18.717Z,612.00
2023-03-01T06:52:18.690Z,628.00
2023-03-01T06:53:19.734Z,648.00
2023-03-01T06:54:18.688Z,660.00
2023-03-01T06:55:18.679Z,672.00
2023-03-01T06:56:18.652Z,688.00
2023-03-01T06:57:18.626Z,700.00
2023-03-01T06:58:18.617Z,720.00
2023-03-01T06:59:18.609Z,732.00
2023-03-01T07:00:18.603Z,748.00
2023-03-01T07:01:18.640Z,760.00
2023-03-01T07:02:18.574Z,776.00
2023-03-01T07:03:18.578Z,792.00
2023-03-01T07:04:18.563Z,804.00
2023-03-01T07:05:18.543Z,820.00
2023-03-01T07:06:18.531Z,832.00
2023-03-01T07:07:18.529Z,844.00
2023-03-01T07:08:18.499Z,856.00
2023-03-01T07:09:18.521Z,872.00
2023-03-01T07:10:18.517Z,880.00
2023-03-01T07:11:18.479Z,896.00
2023-03-01T07:12:18.450Z,904.00
2023-03-01T07:13:18.455Z,916.00
2023-03-01T07:14:18.437Z,932.00
2023-03-01T07:15:18.457Z,944.00
2023-03-01T07:16:18.427Z,952.00
2023-03-01T07:17:18.414Z,968.00
2023-03-01T07:18:18.409Z,980.00
2023-03-01T07:19:18.395Z,992.00
2023-03-01T07:20:18.389Z,1004.00
2023-03-01T07:21:18.365Z,1016.00
2023-03-01T07:22:18.350Z,1024.00
2023-03-01T07:23:18.355Z,1036.00
2023-03-01T07:24:18.348Z,1048.00
2023-03-01T07:25:18.362Z,1056.00
2023-03-01T07:26:18.312Z,1068.00
2023-03-01T07:27:18.299Z,1080.00
2023-03-01T07:28:18.285Z,1088.00
2023-03-01T07:29:18.270Z,1100.00
2023-03-01T07:30:18.268Z,1108.00
2023-03-01T07:31:18.261Z,1120.00
2023-03-01T07:32:18.444Z,1128.00
2023-03-01T07:33:18.274Z,1136.00
2023-03-01T07:34:18.217Z,1144.00
2023-03-01T07:35:18.217Z,1160.00
2023-03-01T07:36:18.206Z,1168.00
2023-03-01T07:37:18.208Z,1176.00
2023-03-01T07:38:18.177Z,1184.00
2023-03-01T07:39:19.683Z,1196.00
2023-03-01T07:40:18.188Z,1204.00
2023-03-01T07:41:18.144Z,1212.00
2023-03-01T07:42:18.166Z,1220.00
2023-03-01T07:43:18.142Z,1228.00
2023-03-01T07:44:18.100Z,1236.00
2023-03-01T07:45:19.152Z,1244.00
2023-03-01T07:46:18.082Z,1252.00
2023-03-01T07:47:18.123Z,1260.00
2023-03-01T07:48:18.072Z,1268.00
2023-03-01T07:49:18.061Z,1276.00
2023-03-01T07:50:18.032Z,1284.00
2023-03-01T07:51:21.173Z,1288.00
2023-03-01T07:52:18.018Z,1296.00
2023-03-01T07:53:18.041Z,1304.00
2023-03-01T07:54:17.970Z,1312.00
2023-03-01T07:55:18.021Z,1320.00
2023-03-01T07:56:17.969Z,1328.00
2023-03-01T07:57:17.967Z,1336.00
2023-03-01T07:58:17.968Z,1340.00
2023-03-01T07:59:17.963Z,1348.00
2023-03-01T08:00:17.931Z,1352.00
2023-03-01T08:01:17.932Z,1360.00
2023-03-01T08:02:17.910Z,1372.00
2023-03-01T08:03:17.907Z,1372.00
2023-03-01T08:04:17.897Z,1380.00
2023-03-01T08:05:17.888Z,1384.00
2023-03-01T08:06:17.871Z,1392.00
2023-03-01T08:07:17.849Z,1392.00
2023-03-01T08:08:18.691Z,1404.00
2023-03-01T08:09:17.826Z,1408.00
2023-03-01T08:10:17.846Z,1412.00
2023-03-01T08:11:17.824Z,1420.00
2023-03-01T08:12:17.818Z,1424.00
2023-03-01T08:13:17.789Z,1432.00
2023-03-01T08:14:17.790Z,1428.00
2023-03-01T08:15:17.777Z,1432.00
2023-03-01T08:16:17.793Z,1436.00
2023-03-01T08:17:17.764Z,1440.00
2023-03-01T08:18:17.745Z,1444.00
2023-03-01T08:19:17.750Z,1452.00
2023-03-01T08:20:19.763Z,1452.00
2023-03-01T08:21:17.717Z,1460.00
2023-03-01T08:22:17.695Z,1464.00
2023-03-01T08:23:17.671Z,1468.00
2023-03-01T08:24:17.777Z,1472.00
2023-03-01T08:25:17.667Z,1476.00
2023-03-01T08:26:17.675Z,1476.00
2023-03-01T08:27:17.667Z,1480.00
2023-03-01T08:28:17.648Z,1484.00
2023-03-01T08:29:17.619Z,1488.00
2023-03-01T08:30:17.621Z,1488.00
2023-03-01T08:31:17.657Z,1492.00
2023-03-01T08:32:17.744Z,1496.00
2023-03-01T08:33:17.609Z,1500.00
2023-03-01T08:34:17.579Z,1508.00
2023-03-01T08:35:17.550Z,1512.00
2023-03-01T08:36:17.532Z,1512.00
2023-03-01T08:37:17.540Z,1516.00
2023-03-01T08:38:17.513Z,1520.00
2023-03-01T08:39:17.604Z,1520.00
2023-03-01T08:40:17.521Z,1524.00
2023-03-01T08:41:17.487Z,1528.00
2023-03-01T08:42:17.522Z,1528.00
2023-03-01T08:43:17.459Z,1528.00
2023-03-01T08:44:17.466Z,1532.00
2023-03-01T08:45:17.445Z,1536.00
2023-03-01T08:46:17.536Z,1540.00
2023-03-01T08:47:17.431Z,1544.00
2023-03-01T08:48:17.427Z,1536.00
2023-03-01T08:49:17.420Z,1548.00
2023-03-01T08:50:17.397Z,1552.00
2023-03-01T08:51:17.992Z,1552.00
2023-03-01T08:52:17.387Z,1556.00
2023-03-01T08:53:17.358Z,1556.00
2023-03-01T08:54:17.353Z,1560.00
2023-03-01T08:55:17.352Z,1564.00
2023-03-01T08:56:17.321Z,1564.00
2023-03-01T08:57:17.316Z,1564.00
2023-03-01T08:58:17.309Z,1568.00
2023-03-01T08:59:17.306Z,1572.00
2023-03-01T09:00:17.292Z,1572.00
2023-03-01T09:01:17.312Z,1576.00
2023-03-01T09:02:17.300Z,1580.00
2023-03-01T09:03:17.258Z,1580.00
2023-03-01T09:04:17.243Z,1588.00
2023-03-01T09:05:19.951Z,1588.00
2023-03-01T09:06:17.227Z,1592.00
2023-03-01T09:07:17.230Z,1596.00
2023-03-01T09:08:17.249Z,1600.00
2023-03-01T09:09:17.250Z,1604.00
2023-03-01T09:10:17.176Z,1604.00
2023-03-01T09:11:17.168Z,1608.00
2023-03-01T09:12:17.176Z,1612.00
2023-03-01T09:13:17.175Z,1612.00
2023-03-01T09:14:17.138Z,1620.00
2023-03-01T09:15:18.203Z,1620.00
2023-03-01T09:16:17.171Z,1624.00
2023-03-01T09:17:17.115Z,1624.00
2023-03-01T09:18:17.118Z,1624.00
2023-03-01T09:19:17.081Z,1632.00
2023-03-01T09:20:17.117Z,1632.00
2023-03-01T09:21:18.306Z,1636.00
2023-03-01T09:22:17.057Z,1648.00
2023-03-01T09:23:17.052Z,1676.00
2023-03-01T09:24:17.038Z,1728.00
2023-03-01T09:25:17.028Z,1808.00
2023-03-01T09:26:17.060Z,1912.00
2023-03-01T09:27:16.995Z,2024.00
2023-03-01T09:28:29.068Z,2124.00
2023-03-01T09:29:17.971Z,2232.00
2023-03-01T09:30:16.969Z,2316.00
2023-03-01T09:31:17.136Z,2388.00
2023-03-01T09:32:17.119Z,2452.00
2023-03-01T09:33:16.931Z,2508.00
2023-03-01T09:34:16.952Z,2556.00
2023-03-01T09:35:16.918Z,2604.00
2023-03-01T09:36:16.901Z,2636.00
2023-03-01T09:37:16.879Z,2668.00
2023-03-01T09:38:16.904Z,2708.00
2023-03-01T09:39:16.867Z,2724.00
2023-03-01T09:40:16.902Z,2740.00
2023-03-01T09:41:16.840Z,2760.00
2023-03-01T09:42:16.838Z,2776.00
2023-03-01T09:43:16.813Z,2776.00
2023-03-01T09:44:16.828Z,2784.00
2023-03-01T09:45:16.804Z,2784.00
2023-03-01T09:46:16.798Z,2776.00
2023-03-01T09:47:16.775Z,2776.00
2023-03-01T09:48:16.786Z,2784.00
2023-03-01T09:49:18.139Z,2764.00
2023-03-01T09:50:16.795Z,2752.00
2023-03-01T09:51:16.752Z,2756.00
2023-03-01T09:52:16.725Z,2736.00
2023-03-01T09:53:16.717Z,2732.00
2023-03-01T09:54:16.715Z,2720.00
2023-03-01T09:55:16.704Z,2704.00
2023-03-01T09:56:16.678Z,2700.00
2023-03-01T09:57:16.754Z,2688.00
2023-03-01T09:58:16.703Z,2680.00
2023-03-01T09:59:16.646Z,2672.00
2023-03-01T10:00:16.652Z,2656.00
2023-03-01T10:01:17.241Z,2652.00
2023-03-01T10:02:16.621Z,2636.00
2023-03-01T10:03:16.601Z,2632.00
2023-03-01T10:04:16.691Z,2604.00
2023-03-01T10:05:16.571Z,2604.00
2023-03-01T10:06:32.124Z,2588.00
2023-03-01T10:07:17.571Z,2572.00
2023-03-01T10:08:16.553Z,2564.00
2023-03-01T10:09:16.524Z,2560.00
2023-03-01T10:10:16.530Z,2552.00
2023-03-01T10:11:16.965Z,2540.00
2023-03-01T10:12:16.491Z,2524.00
2023-03-01T10:13:16.486Z,2508.00
2023-03-01T10:14:16.476Z,2492.00
2023-03-01T10:15:16.465Z,2488.00
2023-03-01T10:16:16.489Z,2476.00
2023-03-01T10:17:19.509Z,2476.00
2023-03-01T10:18:16.454Z,2476.00
2023-03-01T10:19:16.425Z,2448.00
2023-03-01T10:20:16.434Z,2440.00
2023-03-01T10:21:16.401Z,2440.00
2023-03-01T10:22:17.240Z,2428.00
2023-03-01T10:23:16.397Z,2424.00
2023-03-01T10:24:16.363Z,2412.00
2023-03-01T10:25:16.382Z,2404.00
2023-03-01T10:26:16.354Z,2388.00
2023-03-01T10:27:17.354Z,2388.00
2023-03-01T10:28:16.356Z,2380.00
2023-03-01T10:29:16.324Z,2372.00
2023-03-01T10:30:16.316Z,2360.00
2023-03-01T10:31:16.356Z,2352.00
2023-03-01T10:32:16.323Z,2340.00
2023-03-01T10:33:16.268Z,2336.00
2023-03-01T10:34:16.290Z,2320.00
2023-03-01T10:35:16.240Z,2308.00
2023-03-01T10:36:17.315Z,2296.00
2023-03-01T10:37:16.267Z,2272.00
2023-03-01T10:38:16.342Z,2272.00
2023-03-01T10:39:16.205Z,2252.00
2023-03-01T10:40:16.195Z,2244.00
2023-03-01T10:41:16.191Z,2228.00
2023-03-01T10:42:16.187Z,2212.00
2023-03-01T10:43:16.153Z,2204.00
2023-03-01T10:44:16.160Z,2196.00
2023-03-01T10:45:16.138Z,2180.00
2023-03-01T10:46:16.208Z,2168.00
2023-03-01T10:47:16.140Z,2152.00
2023-03-01T10:48:16.130Z,2140.00
2023-03-01T10:49:16.101Z,2128.00
2023-03-01T10:50:16.082Z,2104.00
2023-03-01T10:51:16.062Z,2092.00
2023-03-01T10:52:16.061Z,2072.00
2023-03-01T10:53:16.080Z,2052.00
2023-03-01T10:54:16.060Z,2036.00
2023-03-01T10:55:16.018Z,2028.00
2023-03-01T10:56:16.019Z,2012.00
2023-03-01T10:57:16.037Z,1996.00
2023-03-01T10:58:16.016Z,1984.00
2023-03-01T10:59:16.015Z,1964.00
2023-03-01T11:00:15.983Z,1952.00
2023-03-01T11:01:16.020Z,1936.00
2023-03-01T11:02:24.459Z,1920.00
2023-03-01T11:03:16.963Z,1908.00
2023-03-01T11:04:16.041Z,1892.00
2023-03-01T11:05:15.908Z,1876.00
2023-03-01T11:06:15.929Z,1876.00
2023-03-01T11:07:15.899Z,1880.00
2023-03-01T11:08:15.907Z,1884.00
2023-03-01T11:09:15.880Z,1892.00
2023-03-01T11:10:15.915Z,1916.00
2023-03-01T11:11:15.870Z,1964.00
2023-03-01T11:12:15.855Z,2036.00
2023-03-01T11:13:15.836Z,2108.00
2023-03-01T11:14:26.051Z,2176.00
2023-03-01T11:15:16.830Z,2216.00
2023-03-01T11:16:15.836Z,2248.00
2023-03-01T11:17:15.807Z,2276.00
2023-03-01T11:18:15.774Z,2308.00
2023-03-01T11:19:15.769Z,2352.00
2023-03-01T11:20:15.782Z,2384.00
2023-03-01T11:21:15.760Z,2416.00
2023-03-01T11:22:15.800Z,2452.00
2023-03-01T11:23:15.780Z,2488.00
2023-03-01T11:24:16.783Z,2524.00
2023-03-01T11:25:15.694Z,2556.00
2023-03-01T11:26:15.714Z,2588.00
2023-03-01T11:27:15.669Z,2620.00
2023-03-01T11:28:16.744Z,2656.00
2023-03-01T11:29:15.652Z,2684.00
2023-03-01T11:30:15.682Z,2728.00
2023-03-01T11:31:15.636Z,2764.00
2023-03-01T11:32:15.767Z,2788.00
2023-03-01T11:33:15.635Z,2832.00
2023-03-01T11:34:15.630Z,2860.00
2023-03-01T11:35:15.575Z,2896.00
2023-03-01T11:36:15.659Z,2928.00
2023-03-01T11:37:15.579Z,2964.00
2023-03-01T11:38:15.557Z,2996.00
2023-03-01T11:39:15.540Z,3036.00
2023-03-01T11:40:15.649Z,3068.00
2023-03-01T11:41:15.569Z,3108.00
2023-03-01T11:42:19.181Z,3140.00
2023-03-01T11:43:15.560Z,3176.00
2023-03-01T11:44:15.519Z,3200.00
2023-03-01T11:45:15.469Z,3236.00
2023-03-01T11:46:15.506Z,3264.00
2023-03-01T11:47:15.572Z,3292.00
2023-03-01T11:48:15.459Z,3328.00
2023-03-01T11:49:15.470Z,3384.00
2023-03-01T11:50:15.476Z,3416.00
2023-03-01T11:51:15.797Z,3448.00
2023-03-01T11:52:15.412Z,3484.00
2023-03-01T11:53:15.377Z,3520.00
2023-03-01T11:54:15.376Z,3552.00
2023-03-01T11:55:15.384Z,3584.00
2023-03-01T11:56:15.362Z,3608.00
2023-03-01T11:57:15.347Z,3652.00
2023-03-01T11:58:15.371Z,3688.00
2023-03-01T11:59:15.305Z,3736.00
2023-03-01T12:00:15.307Z,3760.00
2023-03-01T12:01:15.299Z,3804.00
2023-03-01T12:02:15.338Z,3844.00
2023-03-01T12:03:15.292Z,3884.00
2023-03-01T12:04:15.328Z,3904.00
2023-03-01T12:05:15.261Z,3920.00
2023-03-01T12:06:15.251Z,3968.00
2023-03-01T12:07:15.231Z,3996.00
2023-03-01T12:08:15.217Z,3996.00
2023-03-01T12:09:15.224Z,4024.00
2023-03-01T12:10:15.196Z,4040.00
2023-03-01T12:11:15.183Z,4080.00
2023-03-01T12:12:15.206Z,4120.00
2023-03-01T12:13:16.204Z,4164.00
2023-03-01T12:14:15.192Z,4184.00
2023-03-01T12:15:15.177Z,4228.00
2023-03-01T12:16:16.274Z,4252.00
2023-03-01T12:17:15.199Z,4276.00
2023-03-01T12:18:15.110Z,4304.00
2023-03-01T12:19:15.102Z,4324.00
2023-03-01T12:20:15.266Z,4336.00
2023-03-01T12:21:15.108Z,4368.00
2023-03-01T12:22:15.057Z,4372.00
2023-03-01T12:23:20.629Z,4376.00
2023-03-01T12:24:16.037Z,4396.00
2023-03-01T12:25:15.053Z,4440.00
2023-03-01T12:26:15.027Z,4464.00
2023-03-01T12:27:15.023Z,4460.00
2023-03-01T12:28:15.005Z,4504.00
2023-03-01T12:29:14.996Z,4536.00
2023-03-01T12:30:15.008Z,4548.00
2023-03-01T12:31:15.048Z,4556.00
2023-03-01T12:32:15.256Z,4584.00
2023-03-01T12:33:14.951Z,4616.00
2023-03-01T12:34:14.925Z,4660.00
2023-03-01T12:35:14.925Z,4672.00
2023-03-01T12:36:15.003Z,4676.00
2023-03-01T12:37:14.910Z,4692.00
2023-03-01T12:38:14.900Z,4680.00
2023-03-01T12:39:14.874Z,4756.00
2023-03-01T12:40:14.868Z,4780.00
2023-03-01T12:41:14.857Z,4812.00